Terminal Aerodrome Forecast
Issued by NWS Burlington, VT

Home | Current Version | Previous Version | Text Only | Print | Product List | Glossary On
Versions: 1 2 3 4 5 6 7 8 9 10 11 12 13 14 15
443
FTUS41 KBTV 232337
TAFBTV
TAF
KBTV 232337Z 2400/2424 22005KT P6SM SKC
     FM241100 VRB03KT P6SM BKN150 BKN200
     FM241700 20009KT 6SM -SHRA OVC035
     FM241900 20009KT 5SM -SHRA BR OVC025=

USA.gov is the U.S. government's official web portal to all federal, state and local government web resources and services.